createdAt,value
2022-08-26T00:02:11.319Z,11.73
2022-08-26T00:04:38.976Z,10.90
2022-08-26T00:07:06.653Z,11.27
2022-08-26T00:09:39.079Z,12.40
2022-08-26T00:12:09.315Z,11.02
2022-08-26T00:14:39.963Z,11.73
2022-08-26T00:17:08.278Z,11.27
2022-08-26T00:19:36.199Z,12.13
2022-08-26T00:22:03.764Z,10.82
2022-08-26T00:24:31.208Z,12.30
2022-08-26T00:26:58.898Z,12.00
2022-08-26T00:29:26.473Z,11.80
2022-08-26T00:31:54.071Z,11.15
2022-08-26T00:34:21.751Z,10.65
2022-08-26T00:36:51.870Z,11.35
2022-08-26T00:39:20.431Z,11.95
2022-08-26T00:41:49.152Z,11.27
2022-08-26T00:44:17.624Z,11.63
2022-08-26T00:46:55.458Z,11.45
2022-08-26T00:49:33.400Z,11.00
2022-08-26T00:52:03.457Z,11.32
2022-08-26T00:54:36.324Z,10.70
2022-08-26T00:57:16.454Z,11.27
2022-08-26T00:59:47.777Z,11.95
2022-08-26T01:02:21.349Z,12.10
2022-08-26T01:05:03.421Z,11.85
2022-08-26T01:07:33.133Z,11.57
2022-08-26T01:10:05.467Z,11.15
2022-08-26T01:12:41.490Z,11.40
2022-08-26T01:15:15.699Z,12.48
2022-08-26T01:17:43.843Z,11.85
2022-08-26T01:20:40.448Z,12.38
2022-08-26T01:23:11.365Z,12.27
2022-08-26T01:25:43.234Z,11.68
2022-08-26T01:28:17.033Z,11.85
2022-08-26T01:30:47.549Z,11.88
2022-08-26T01:33:19.498Z,12.25
2022-08-26T01:35:48.307Z,12.63
2022-08-26T01:38:17.098Z,12.32
2022-08-26T01:40:46.196Z,12.98
2022-08-26T01:43:20.658Z,12.25
2022-08-26T01:45:50.937Z,12.55
2022-08-26T01:48:24.361Z,11.90
2022-08-26T01:53:23.341Z,11.55
2022-08-26T01:55:55.190Z,11.73
2022-08-26T01:58:32.415Z,12.18
2022-08-26T02:01:00.284Z,12.02
2022-08-26T02:03:31.012Z,12.13
2022-08-26T02:06:06.323Z,11.98
2022-08-26T02:08:47.143Z,12.30
2022-08-26T02:11:14.626Z,12.23
2022-08-26T02:13:51.326Z,13.95
2022-08-26T02:16:22.509Z,13.52
2022-08-26T02:18:53.556Z,12.85
2022-08-26T02:21:21.431Z,12.77
2022-08-26T02:23:52.797Z,12.70
2022-08-26T02:26:26.847Z,12.35
2022-08-26T02:29:05.642Z,12.15
2022-08-26T02:31:35.193Z,11.95
2022-08-26T02:34:13.989Z,12.38
2022-08-26T02:36:43.272Z,12.15
2022-08-26T02:39:11.243Z,12.00
2022-08-26T02:41:44.805Z,13.00
2022-08-26T02:44:13.468Z,12.63
2022-08-26T02:46:41.429Z,12.02
2022-08-26T02:49:15.180Z,13.80
2022-08-26T02:51:43.115Z,12.13
2022-08-26T02:54:10.731Z,12.40
2022-08-26T02:56:38.481Z,11.57
2022-08-26T02:59:06.823Z,12.35
2022-08-26T03:01:36.225Z,11.52
2022-08-26T03:04:06.937Z,12.32
2022-08-26T03:06:34.504Z,12.60
2022-08-26T03:09:06.070Z,12.55
2022-08-26T03:11:34.261Z,12.23
2022-08-26T03:14:03.625Z,11.80
2022-08-26T03:16:36.988Z,11.40
2022-08-26T03:19:08.508Z,11.32
2022-08-26T03:21:37.901Z,11.57
2022-08-26T03:24:06.354Z,11.68
2022-08-26T03:26:33.766Z,11.55
2022-08-26T03:29:20.005Z,11.30
2022-08-26T03:31:47.625Z,11.05
2022-08-26T03:34:15.739Z,11.52
2022-08-26T03:36:43.943Z,11.40
2022-08-26T03:39:13.278Z,11.23
2022-08-26T03:41:41.269Z,11.55
2022-08-26T03:44:09.380Z,11.60
2022-08-26T03:46:38.098Z,11.93
2022-08-26T03:49:06.430Z,11.80
2022-08-26T03:51:34.956Z,11.32
2022-08-26T03:54:08.459Z,10.02
2022-08-26T03:56:37.076Z,10.85
2022-08-26T03:59:07.572Z,10.63
2022-08-26T04:01:35.929Z,10.32
2022-08-26T04:04:04.937Z,11.05
2022-08-26T04:06:39.770Z,10.48
2022-08-26T04:09:11.965Z,10.50
2022-08-26T04:11:39.882Z,10.00
2022-08-26T04:14:10.984Z,9.73
2022-08-26T04:16:39.223Z,10.68
2022-08-26T04:19:06.948Z,10.10
2022-08-26T04:21:35.667Z,9.98
2022-08-26T04:24:03.497Z,9.52
2022-08-26T04:26:39.583Z,9.50
2022-08-26T04:29:18.332Z,9.30
2022-08-26T04:31:48.413Z,9.25
2022-08-26T04:34:17.032Z,9.77
2022-08-26T04:36:45.139Z,9.50
2022-08-26T04:39:14.416Z,8.73
2022-08-26T04:41:41.957Z,9.05
2022-08-26T04:44:09.784Z,9.40
2022-08-26T04:46:39.964Z,9.27
2022-08-26T04:49:11.964Z,9.05
2022-08-26T04:51:40.128Z,8.82
2022-08-26T04:54:08.115Z,9.35
2022-08-26T04:56:39.373Z,9.27
2022-08-26T04:59:16.691Z,9.02
2022-08-26T05:01:49.021Z,8.60
2022-08-26T05:04:18.910Z,8.52
2022-08-26T05:06:48.620Z,8.52
2022-08-26T05:09:21.322Z,8.95
2022-08-26T05:11:52.335Z,8.70
2022-08-26T05:14:23.500Z,9.07
2022-08-26T05:16:51.485Z,8.90
2022-08-26T05:19:19.575Z,8.85
2022-08-26T05:21:48.908Z,8.32
2022-08-26T05:24:18.117Z,8.60
2022-08-26T05:26:45.749Z,8.85
2022-08-26T05:29:14.363Z,8.43
2022-08-26T05:31:42.130Z,9.20
2022-08-26T05:34:09.524Z,8.90
2022-08-26T05:36:39.120Z,8.65
2022-08-26T05:39:07.920Z,8.60
2022-08-26T05:41:41.273Z,9.10
2022-08-26T05:44:12.278Z,8.65
2022-08-26T05:46:41.144Z,8.37
2022-08-26T05:49:12.827Z,8.55
2022-08-26T05:54:10.330Z,8.38
2022-08-26T05:56:39.027Z,8.05
2022-08-26T05:59:14.089Z,8.35
2022-08-26T06:01:43.107Z,8.80
2022-08-26T06:04:11.970Z,8.50
2022-08-26T06:06:42.906Z,8.20
2022-08-26T06:09:12.652Z,8.55
2022-08-26T06:11:40.482Z,8.18
2022-08-26T06:14:08.791Z,8.70
2022-08-26T06:16:40.755Z,8.15
2022-08-26T06:19:11.769Z,7.57
2022-08-26T06:21:42.615Z,8.10
2022-08-26T06:27:04.542Z,7.68
2022-08-26T06:29:34.441Z,7.30
2022-08-26T06:34:31.600Z,7.15
2022-08-26T06:37:02.845Z,6.97
2022-08-26T06:39:31.904Z,6.75
2022-08-26T06:42:00.950Z,6.82
2022-08-26T06:44:34.682Z,6.82
2022-08-26T06:47:02.341Z,6.68
2022-08-26T06:49:29.804Z,6.07
2022-08-26T06:51:59.977Z,6.55
2022-08-26T06:54:30.551Z,6.57
2022-08-26T06:56:58.711Z,6.70
2022-08-26T06:59:26.437Z,5.97
2022-08-26T07:01:55.042Z,6.10
2022-08-26T07:04:23.439Z,6.05
2022-08-26T07:06:53.550Z,6.35
2022-08-26T07:09:23.811Z,6.70
2022-08-26T07:11:52.878Z,5.68
2022-08-26T07:14:21.446Z,5.50
2022-08-26T07:16:50.793Z,5.55
2022-08-26T07:19:29.093Z,5.47
2022-08-26T07:22:06.235Z,5.63
2022-08-26T07:24:38.509Z,5.57
2022-08-26T07:27:08.772Z,5.50
2022-08-26T07:29:39.742Z,5.63
2022-08-26T07:32:08.899Z,5.50
2022-08-26T07:34:41.859Z,5.50
2022-08-26T07:37:09.738Z,5.57
2022-08-26T07:39:37.973Z,5.65
2022-08-26T07:42:09.383Z,5.30
2022-08-26T07:44:38.016Z,5.43
2022-08-26T07:47:10.517Z,6.05
2022-08-26T07:49:54.894Z,5.90
2022-08-26T07:52:26.311Z,5.75
2022-08-26T07:54:55.742Z,5.70
2022-08-26T07:57:24.223Z,5.50
2022-08-26T07:59:54.073Z,5.63
2022-08-26T08:02:24.731Z,5.85
2022-08-26T08:04:53.281Z,5.70
2022-08-26T08:07:38.620Z,5.88
2022-08-26T08:10:10.091Z,6.82
2022-08-26T08:12:40.526Z,6.55
2022-08-26T08:15:10.181Z,6.40
2022-08-26T08:17:37.759Z,6.15
2022-08-26T08:20:06.919Z,6.05
2022-08-26T08:22:35.645Z,6.70
2022-08-26T08:25:08.190Z,6.35
2022-08-26T08:27:40.137Z,6.43
2022-08-26T08:30:09.215Z,6.57
2022-08-26T08:32:43.835Z,6.30
2022-08-26T08:35:13.926Z,5.90
2022-08-26T08:37:42.064Z,5.78
2022-08-26T08:40:18.588Z,5.70
2022-08-26T08:42:55.260Z,5.88
2022-08-26T08:45:39.402Z,5.80
2022-08-26T08:48:07.019Z,5.70
2022-08-26T08:50:41.939Z,6.00
2022-08-26T08:53:13.362Z,6.03
2022-08-26T08:56:12.629Z,6.40
2022-08-26T08:59:02.888Z,6.00
2022-08-26T09:01:52.489Z,6.05
2022-08-26T09:07:00.773Z,5.78
2022-08-26T09:12:15.773Z,5.90
2022-08-26T09:14:46.095Z,6.20
2022-08-26T09:17:30.723Z,5.90
2022-08-26T09:20:18.677Z,4.95
2022-08-26T09:22:47.093Z,5.57
2022-08-26T09:25:15.537Z,6.55
2022-08-26T09:27:51.641Z,6.28
2022-08-26T09:30:33.334Z,6.50
2022-08-26T09:33:06.599Z,6.40
2022-08-26T09:35:45.786Z,5.60
2022-08-26T09:38:23.642Z,6.70
2022-08-26T09:41:20.450Z,6.85
2022-08-26T09:44:14.566Z,6.32
2022-08-26T09:46:52.526Z,6.55
2022-08-26T09:49:27.138Z,6.38
2022-08-26T09:52:17.996Z,6.95
2022-08-26T09:55:11.756Z,7.00
2022-08-26T09:57:55.243Z,6.72
2022-08-26T10:00:39.054Z,6.78
2022-08-26T10:03:12.059Z,6.95
2022-08-26T10:06:00.413Z,6.80
2022-08-26T10:08:39.760Z,6.80
2022-08-26T10:11:40.793Z,7.25
2022-08-26T10:14:18.387Z,7.32
2022-08-26T10:16:56.324Z,6.43
2022-08-26T10:19:41.714Z,6.65
2022-08-26T10:22:26.074Z,6.80
2022-08-26T10:25:00.701Z,6.75
2022-08-26T10:28:00.146Z,6.32
2022-08-26T10:30:49.168Z,6.75
2022-08-26T10:33:17.900Z,6.30
2022-08-26T10:35:53.924Z,6.88
2022-08-26T10:38:29.773Z,6.60
2022-08-26T10:41:10.722Z,6.15
2022-08-26T10:43:45.519Z,6.65
2022-08-26T10:51:18.262Z,6.57
2022-08-26T10:53:56.837Z,6.63
2022-08-26T10:56:44.195Z,6.90
2022-08-26T10:59:43.850Z,6.93
2022-08-26T11:02:22.791Z,6.47
2022-08-26T11:05:04.702Z,6.50
2022-08-26T11:07:33.276Z,6.50
2022-08-26T11:10:09.681Z,6.57
2022-08-26T11:12:37.337Z,6.03
2022-08-26T11:15:29.793Z,6.45
2022-08-26T11:18:00.868Z,6.53
2022-08-26T11:20:47.673Z,6.45
2022-08-26T11:23:22.547Z,6.90
2022-08-26T11:26:02.191Z,6.97
2022-08-26T11:28:45.861Z,6.45
2022-08-26T11:31:26.923Z,6.88
2022-08-26T11:33:59.540Z,7.30
2022-08-26T11:36:41.871Z,7.00
2022-08-26T11:39:18.451Z,7.30
2022-08-26T11:41:52.751Z,6.85
2022-08-26T11:44:26.696Z,7.10
2022-08-26T11:47:03.832Z,7.35
2022-08-26T11:49:33.825Z,6.88
2022-08-26T11:52:20.847Z,6.70
2022-08-26T11:55:11.920Z,7.40
2022-08-26T11:57:48.717Z,7.43
2022-08-26T12:00:33.407Z,6.80
2022-08-26T12:03:05.416Z,7.10
2022-08-26T12:05:42.782Z,6.50
2022-08-26T12:08:14.425Z,6.43
2022-08-26T12:10:41.926Z,6.85
2022-08-26T12:13:22.201Z,7.35
2022-08-26T12:15:58.735Z,6.75
2022-08-26T12:18:31.045Z,6.72
2022-08-26T12:21:16.451Z,6.40
2022-08-26T12:23:47.943Z,6.72
2022-08-26T12:26:37.388Z,6.47
2022-08-26T12:29:12.605Z,7.82
2022-08-26T12:31:48.607Z,7.15
2022-08-26T12:34:18.530Z,7.85
2022-08-26T12:36:50.236Z,6.78
2022-08-26T12:39:33.348Z,6.97
2022-08-26T12:44:53.443Z,7.20
2022-08-26T12:47:42.423Z,7.63
2022-08-26T12:50:37.018Z,7.40
2022-08-26T12:53:10.309Z,7.90
2022-08-26T12:55:43.333Z,7.60
2022-08-26T12:58:16.876Z,7.43
2022-08-26T13:00:47.630Z,7.80
2022-08-26T13:03:43.878Z,8.27
2022-08-26T13:06:31.714Z,7.82
2022-08-26T13:09:25.021Z,7.82
2022-08-26T13:11:55.068Z,8.48
2022-08-26T13:14:24.879Z,8.88
2022-08-26T13:16:53.462Z,9.18
2022-08-26T13:19:29.847Z,9.32
2022-08-26T13:22:00.525Z,8.75
2022-08-26T13:24:41.139Z,9.32
2022-08-26T13:27:14.715Z,9.23
2022-08-26T13:29:42.320Z,9.80
2022-08-26T13:32:10.207Z,9.23
2022-08-26T13:34:38.895Z,10.02
2022-08-26T13:37:07.258Z,9.98
2022-08-26T13:39:34.744Z,10.50
2022-08-26T13:42:02.151Z,10.18
2022-08-26T13:44:29.634Z,11.05
2022-08-26T13:46:57.061Z,10.52
2022-08-26T13:49:24.514Z,10.40
2022-08-26T13:51:51.878Z,10.70
2022-08-26T13:54:19.428Z,11.18
2022-08-26T13:56:47.278Z,11.05
2022-08-26T13:59:14.995Z,11.85
2022-08-26T14:01:42.675Z,14.10
2022-08-26T14:04:10.198Z,12.57
2022-08-26T14:06:37.650Z,12.38
2022-08-26T14:09:05.206Z,12.00
2022-08-26T14:11:41.253Z,11.48
2022-08-26T14:14:18.357Z,11.90
2022-08-26T14:16:59.108Z,12.07
2022-08-26T14:19:29.804Z,12.38
2022-08-26T14:21:57.625Z,11.35
2022-08-26T14:24:25.093Z,11.68
2022-08-26T14:26:52.569Z,11.82
2022-08-26T14:29:20.004Z,11.85
2022-08-26T14:31:48.060Z,11.13
2022-08-26T14:34:16.041Z,13.27
2022-08-26T14:36:43.729Z,11.38
2022-08-26T14:39:13.212Z,12.85
2022-08-26T14:41:53.911Z,12.15
2022-08-26T14:44:27.383Z,12.57
2022-08-26T14:46:55.486Z,12.38
2022-08-26T14:49:24.847Z,12.20
2022-08-26T14:51:52.441Z,11.40
2022-08-26T14:54:21.447Z,13.50
2022-08-26T14:57:06.495Z,12.70
2022-08-26T14:59:40.921Z,13.68
2022-08-26T15:02:13.916Z,12.90
2022-08-26T15:04:57.081Z,13.25
2022-08-26T15:07:24.560Z,13.13
2022-08-26T15:09:51.936Z,12.65
2022-08-26T15:12:19.411Z,12.82
2022-08-26T15:14:47.161Z,12.68
2022-08-26T15:17:14.609Z,12.30
2022-08-26T15:19:42.090Z,13.05
2022-08-26T15:22:09.574Z,13.05
2022-08-26T15:24:37.105Z,12.82
2022-08-26T15:27:04.536Z,13.02
2022-08-26T15:29:32.052Z,13.10
2022-08-26T15:32:04.527Z,12.57
2022-08-26T15:34:32.352Z,12.38
2022-08-26T15:36:59.886Z,13.48
2022-08-26T15:39:27.450Z,12.68
2022-08-26T15:41:56.504Z,11.95
2022-08-26T15:44:26.211Z,11.65
2022-08-26T15:46:58.831Z,11.18
2022-08-26T15:49:27.827Z,11.70
2022-08-26T15:51:55.314Z,11.05
2022-08-26T15:54:24.099Z,11.20
2022-08-26T15:56:53.303Z,11.75
2022-08-26T15:59:21.919Z,10.82
2022-08-26T16:01:50.076Z,12.45
2022-08-26T16:04:18.880Z,11.05
2022-08-26T16:06:50.489Z,11.57
2022-08-26T16:09:19.803Z,11.98
2022-08-26T16:11:47.282Z,11.70
2022-08-26T16:14:14.981Z,10.68
2022-08-26T16:16:42.438Z,12.25
2022-08-26T16:19:11.859Z,13.38
2022-08-26T16:21:40.811Z,12.02
2022-08-26T16:24:08.711Z,11.55
2022-08-26T16:26:38.767Z,11.27
2022-08-26T16:29:10.219Z,11.30
2022-08-26T16:31:41.026Z,11.57
2022-08-26T16:34:09.423Z,10.77
2022-08-26T16:36:38.751Z,11.30
2022-08-26T16:39:08.304Z,10.73
2022-08-26T16:41:36.408Z,11.27
2022-08-26T16:44:04.775Z,11.40
2022-08-26T16:46:34.033Z,11.88
2022-08-26T16:49:04.395Z,11.07
2022-08-26T16:51:32.775Z,11.70
2022-08-26T16:54:07.072Z,11.55
2022-08-26T16:56:34.994Z,11.30
2022-08-26T16:59:05.371Z,12.20
2022-08-26T17:01:33.201Z,11.57
2022-08-26T17:04:00.801Z,11.27
2022-08-26T17:06:28.270Z,10.40
2022-08-26T17:08:55.777Z,11.50
2022-08-26T17:11:23.244Z,11.32
2022-08-26T17:13:50.684Z,11.25
2022-08-26T17:16:18.279Z,12.10
2022-08-26T17:18:46.216Z,11.52
2022-08-26T17:21:14.496Z,11.90
2022-08-26T17:23:43.370Z,12.02
2022-08-26T17:26:12.659Z,11.85
2022-08-26T17:28:40.894Z,11.35
2022-08-26T17:31:10.222Z,12.30
2022-08-26T17:33:38.501Z,12.10
2022-08-26T17:36:08.095Z,12.25
2022-08-26T17:38:36.680Z,12.13
2022-08-26T17:41:08.622Z,13.90
2022-08-26T17:43:36.891Z,12.40
2022-08-26T17:46:07.711Z,12.23
2022-08-26T17:48:37.145Z,12.70
2022-08-26T17:51:13.221Z,12.30
2022-08-26T17:53:41.563Z,11.40
2022-08-26T17:56:11.520Z,12.65
2022-08-26T17:58:41.180Z,12.50
2022-08-26T18:01:18.425Z,11.60
2022-08-26T18:03:46.061Z,13.65
2022-08-26T18:06:14.602Z,13.65
2022-08-26T18:08:42.267Z,13.30
2022-08-26T18:11:19.335Z,12.02
2022-08-26T18:13:48.084Z,13.10
2022-08-26T18:16:17.681Z,11.98
2022-08-26T18:18:47.031Z,11.82
2022-08-26T18:21:18.014Z,11.30
2022-08-26T18:23:47.010Z,11.13
2022-08-26T18:26:35.976Z,10.57
2022-08-26T18:29:04.525Z,11.25
2022-08-26T18:31:32.295Z,10.80
2022-08-26T18:34:03.262Z,10.10
2022-08-26T18:36:35.737Z,11.70
2022-08-26T18:39:05.496Z,11.13
2022-08-26T18:41:34.958Z,10.50
2022-08-26T18:44:02.860Z,10.55
2022-08-26T18:46:30.508Z,10.27
2022-08-26T18:48:59.143Z,12.02
2022-08-26T18:51:32.442Z,12.38
2022-08-26T18:56:29.608Z,11.38
2022-08-26T18:58:58.523Z,11.45
2022-08-26T19:01:27.793Z,11.68
2022-08-26T19:03:57.316Z,12.45
2022-08-26T19:06:25.877Z,11.20
2022-08-26T19:08:54.014Z,12.45
2022-08-26T19:11:32.614Z,12.05
2022-08-26T19:14:08.075Z,12.05
2022-08-26T19:16:36.945Z,12.15
2022-08-26T19:19:04.938Z,11.80
2022-08-26T19:21:33.502Z,12.90
2022-08-26T19:24:03.389Z,12.02
2022-08-26T19:26:32.083Z,11.57
2022-08-26T19:29:00.287Z,12.52
2022-08-26T19:31:28.656Z,12.00
2022-08-26T19:33:58.206Z,11.30
2022-08-26T19:36:27.102Z,10.82
2022-08-26T19:38:56.236Z,12.05
2022-08-26T19:41:36.526Z,12.57
2022-08-26T19:44:38.441Z,12.73
2022-08-26T19:47:08.185Z,12.43
2022-08-26T19:49:36.030Z,13.30
2022-08-26T19:52:04.606Z,13.13
2022-08-26T19:54:33.942Z,13.50
2022-08-26T19:57:01.335Z,13.20
2022-08-26T19:59:29.495Z,12.77
2022-08-26T20:02:00.677Z,12.45
2022-08-26T20:04:31.764Z,14.47
2022-08-26T20:07:02.270Z,13.25
2022-08-26T20:09:31.194Z,14.18
2022-08-26T20:11:59.040Z,13.15
2022-08-26T20:14:27.310Z,13.68
2022-08-26T20:16:54.795Z,13.73
2022-08-26T20:19:40.859Z,13.25
2022-08-26T20:22:08.672Z,13.98
2022-08-26T20:24:37.310Z,14.07
2022-08-26T20:27:07.721Z,13.93
2022-08-26T20:29:37.675Z,13.45
2022-08-26T20:32:08.099Z,13.57
2022-08-26T20:34:37.121Z,13.73
2022-08-26T20:37:05.420Z,13.57
2022-08-26T20:39:33.156Z,14.00
2022-08-26T20:42:00.738Z,13.63
2022-08-26T20:44:28.340Z,12.63
2022-08-26T20:46:56.847Z,13.15
2022-08-26T20:49:24.383Z,13.20
2022-08-26T20:51:52.690Z,14.80
2022-08-26T20:54:26.179Z,13.35
2022-08-26T20:56:57.814Z,12.40
2022-08-26T20:59:26.367Z,12.98
2022-08-26T21:01:53.934Z,13.32
2022-08-26T21:04:24.744Z,13.10
2022-08-26T21:06:53.264Z,13.68
2022-08-26T21:09:22.894Z,13.43
2022-08-26T21:11:50.872Z,13.63
2022-08-26T21:14:19.231Z,13.77
2022-08-26T21:16:47.356Z,12.55
2022-08-26T21:19:18.886Z,12.85
2022-08-26T21:21:48.360Z,12.48
2022-08-26T21:24:16.748Z,12.02
2022-08-26T21:26:44.349Z,11.82
2022-08-26T21:29:13.834Z,12.35
2022-08-26T21:31:46.173Z,12.15
2022-08-26T21:34:17.440Z,11.88
2022-08-26T21:36:48.669Z,11.98
2022-08-26T21:39:17.163Z,11.23
2022-08-26T21:41:46.007Z,12.20
2022-08-26T21:44:15.266Z,11.25
2022-08-26T21:46:44.427Z,12.13
2022-08-26T21:49:15.970Z,13.55
2022-08-26T21:51:46.639Z,12.07
2022-08-26T21:54:14.605Z,13.05
2022-08-26T21:56:47.356Z,12.60
2022-08-26T21:59:17.496Z,12.90
2022-08-26T22:01:45.237Z,13.35
2022-08-26T22:04:13.071Z,12.27
2022-08-26T22:06:46.603Z,11.40
2022-08-26T22:09:17.815Z,10.63
2022-08-26T22:11:46.014Z,10.27
2022-08-26T22:14:14.428Z,10.52
2022-08-26T22:16:41.981Z,10.20
2022-08-26T22:19:20.266Z,10.75
2022-08-26T22:21:50.309Z,10.68
2022-08-26T22:24:22.860Z,10.35
2022-08-26T22:26:51.310Z,12.20
2022-08-26T22:29:19.782Z,13.02
2022-08-26T22:31:47.392Z,12.98
2022-08-26T22:34:17.557Z,13.40
2022-08-26T22:36:47.008Z,12.25
2022-08-26T22:39:16.736Z,11.60
2022-08-26T22:41:45.322Z,12.48
2022-08-26T22:44:12.840Z,12.48
2022-08-26T22:46:41.409Z,13.32
2022-08-26T22:49:16.643Z,12.60
2022-08-26T22:51:46.004Z,12.63
2022-08-26T22:54:15.025Z,13.23
2022-08-26T22:56:44.488Z,12.38
2022-08-26T22:59:13.214Z,13.60
2022-08-26T23:01:43.216Z,12.80
2022-08-26T23:04:11.638Z,13.82
2022-08-26T23:06:43.361Z,12.55
2022-08-26T23:09:18.391Z,13.40
2022-08-26T23:11:48.658Z,12.60
2022-08-26T23:14:18.802Z,13.00
2022-08-26T23:16:47.817Z,13.00
2022-08-26T23:19:17.827Z,13.00
2022-08-26T23:21:45.822Z,12.48
2022-08-26T23:24:14.268Z,12.23
2022-08-26T23:26:42.531Z,12.50
2022-08-26T23:29:11.955Z,11.75
2022-08-26T23:31:41.286Z,12.38
2022-08-26T23:34:27.178Z,12.43
2022-08-26T23:36:57.197Z,12.35
2022-08-26T23:39:25.781Z,11.85
2022-08-26T23:41:53.260Z,12.77
2022-08-26T23:44:21.033Z,12.38
2022-08-26T23:46:48.556Z,12.90
2022-08-26T23:49:15.967Z,12.55
2022-08-26T23:52:01.977Z,13.15
2022-08-26T23:54:29.393Z,13.20
2022-08-26T23:56:57.196Z,13.45
2022-08-26T23:59:24.696Z,13.25
